sensor_id;sensor_type;location;lat;lon;timestamp;pressure;altitude;pressure_sealevel;temperature;humidity
33280;BME280;20403;43.114;12.434;2023-05-16T00:02:13;97633.28;;;13.88;100.00
33280;BME280;20403;43.114;12.434;2023-05-16T00:04:40;97630.41;;;13.90;100.00
33280;BME280;20403;43.114;12.434;2023-05-16T00:07:05;97625.16;;;13.90;100.00
33280;BME280;20403;43.114;12.434;2023-05-16T00:09:31;97608.22;;;13.82;100.00
33280;BME280;20403;43.114;12.434;2023-05-16T00:11:56;97595.56;;;13.90;100.00
33280;BME280;20403;43.114;12.434;2023-05-16T00:14:23;97583.22;;;13.90;100.00
33280;BME280;20403;43.114;12.434;2023-05-16T00:16:51;97579.94;;;13.79;100.00
33280;BME280;20403;43.114;12.434;2023-05-16T00:19:17;97578.00;;;13.90;100.00
33280;BME280;20403;43.114;12.434;2023-05-16T00:21:43;97586.22;;;14.02;100.00
33280;BME280;20403;43.114;12.434;2023-05-16T00:24:09;97573.13;;;14.02;100.00
33280;BME280;20403;43.114;12.434;2023-05-16T00:26:34;97570.38;;;13.94;100.00
33280;BME280;20403;43.114;12.434;2023-05-16T00:29:00;97559.75;;;14.04;100.00
33280;BME280;20403;43.114;12.434;2023-05-16T00:31:26;97558.41;;;14.06;100.00
33280;BME280;20403;43.114;12.434;2023-05-16T00:33:52;97548.41;;;14.08;100.00
33280;BME280;20403;43.114;12.434;2023-05-16T00:36:17;97542.97;;;14.05;100.00
33280;BME280;20403;43.114;12.434;2023-05-16T00:38:43;97548.22;;;14.05;100.00
33280;BME280;20403;43.114;12.434;2023-05-16T00:41:08;97535.22;;;13.95;100.00
33280;BME280;20403;43.114;12.434;2023-05-16T00:43:34;97537.84;;;13.95;100.00
33280;BME280;20403;43.114;12.434;2023-05-16T00:45:59;97532.75;;;14.03;100.00
33280;BME280;20403;43.114;12.434;2023-05-16T00:48:25;97517.53;;;14.05;100.00
33280;BME280;20403;43.114;12.434;2023-05-16T00:50:51;97517.59;;;14.00;100.00
33280;BME280;20403;43.114;12.434;2023-05-16T00:53:17;97529.72;;;13.96;100.00
33280;BME280;20403;43.114;12.434;2023-05-16T00:55:43;97532.16;;;13.87;100.00
33280;BME280;20403;43.114;12.434;2023-05-16T00:58:10;97537.16;;;13.89;100.00
33280;BME280;20403;43.114;12.434;2023-05-16T01:00:35;97528.00;;;13.86;100.00
33280;BME280;20403;43.114;12.434;2023-05-16T01:03:03;97523.25;;;13.88;100.00
33280;BME280;20403;43.114;12.434;2023-05-16T01:05:29;97511.56;;;13.81;100.00
33280;BME280;20403;43.114;12.434;2023-05-16T01:07:55;97511.22;;;13.87;100.00
33280;BME280;20403;43.114;12.434;2023-05-16T01:10:21;97501.56;;;13.83;100.00
33280;BME280;20403;43.114;12.434;2023-05-16T01:12:59;97504.19;;;13.83;100.00
33280;BME280;20403;43.114;12.434;2023-05-16T01:15:35;97500.03;;;13.82;100.00
33280;BME280;20403;43.114;12.434;2023-05-16T01:20:55;97480.38;;;13.79;100.00
33280;BME280;20403;43.114;12.434;2023-05-16T01:26:21;97466.81;;;13.77;100.00
33280;BME280;20403;43.114;12.434;2023-05-16T01:28:48;97463.91;;;13.79;100.00
33280;BME280;20403;43.114;12.434;2023-05-16T01:31:15;97457.63;;;13.80;100.00
33280;BME280;20403;43.114;12.434;2023-05-16T01:33:41;97448.06;;;13.89;100.00
33280;BME280;20403;43.114;12.434;2023-05-16T01:36:25;97430.34;;;13.81;100.00
33280;BME280;20403;43.114;12.434;2023-05-16T01:39:01;97431.19;;;13.76;100.00
33280;BME280;20403;43.114;12.434;2023-05-16T01:41:49;97431.47;;;13.75;100.00
33280;BME280;20403;43.114;12.434;2023-05-16T01:44:23;97411.16;;;13.66;100.00
33280;BME280;20403;43.114;12.434;2023-05-16T01:46:55;97403.44;;;13.75;100.00
33280;BME280;20403;43.114;12.434;2023-05-16T01:52:01;97394.31;;;13.73;100.00
33280;BME280;20403;43.114;12.434;2023-05-16T01:54:31;97379.66;;;13.72;100.00
33280;BME280;20403;43.114;12.434;2023-05-16T01:56:58;97373.84;;;13.75;100.00
33280;BME280;20403;43.114;12.434;2023-05-16T01:59:25;97372.34;;;13.87;100.00
33280;BME280;20403;43.114;12.434;2023-05-16T02:01:56;97367.38;;;13.86;100.00
33280;BME280;20403;43.114;12.434;2023-05-16T02:04:21;97363.78;;;13.82;100.00
33280;BME280;20403;43.114;12.434;2023-05-16T02:06:48;97366.03;;;13.88;100.00
33280;BME280;20403;43.114;12.434;2023-05-16T02:09:14;97369.88;;;13.96;100.00
33280;BME280;20403;43.114;12.434;2023-05-16T02:11:39;97361.16;;;14.01;100.00
33280;BME280;20403;43.114;12.434;2023-05-16T02:14:05;97359.06;;;13.98;100.00
33280;BME280;20403;43.114;12.434;2023-05-16T02:16:30;97351.44;;;14.01;100.00
33280;BME280;20403;43.114;12.434;2023-05-16T02:18:55;97353.84;;;13.98;100.00
33280;BME280;20403;43.114;12.434;2023-05-16T02:21:21;97345.69;;;13.99;100.00
33280;BME280;20403;43.114;12.434;2023-05-16T02:23:46;97336.56;;;13.97;100.00
33280;BME280;20403;43.114;12.434;2023-05-16T02:26:12;97344.25;;;14.07;100.00
33280;BME280;20403;43.114;12.434;2023-05-16T02:28:37;97336.19;;;14.03;100.00
33280;BME280;20403;43.114;12.434;2023-05-16T02:31:03;97327.25;;;14.04;100.00
33280;BME280;20403;43.114;12.434;2023-05-16T02:33:29;97318.84;;;14.07;100.00
33280;BME280;20403;43.114;12.434;2023-05-16T02:35:54;97316.72;;;14.10;100.00
33280;BME280;20403;43.114;12.434;2023-05-16T02:38:20;97313.63;;;14.21;100.00
33280;BME280;20403;43.114;12.434;2023-05-16T02:40:46;97301.94;;;14.14;100.00
33280;BME280;20403;43.114;12.434;2023-05-16T02:43:12;97301.44;;;14.12;100.00
33280;BME280;20403;43.114;12.434;2023-05-16T02:45:38;97298.28;;;14.15;100.00
33280;BME280;20403;43.114;12.434;2023-05-16T02:48:04;97289.72;;;14.23;100.00
33280;BME280;20403;43.114;12.434;2023-05-16T02:50:29;97289.34;;;14.16;100.00
33280;BME280;20403;43.114;12.434;2023-05-16T02:52:55;97277.88;;;14.12;100.00
33280;BME280;20403;43.114;12.434;2023-05-16T02:55:24;97275.66;;;14.19;100.00
33280;BME280;20403;43.114;12.434;2023-05-16T02:57:49;97280.91;;;14.19;100.00
33280;BME280;20403;43.114;12.434;2023-05-16T03:00:15;97275.34;;;14.20;100.00
33280;BME280;20403;43.114;12.434;2023-05-16T03:02:41;97272.25;;;14.18;100.00
33280;BME280;20403;43.114;12.434;2023-05-16T03:05:06;97274.00;;;14.23;100.00
33280;BME280;20403;43.114;12.434;2023-05-16T03:07:32;97275.25;;;14.25;100.00
33280;BME280;20403;43.114;12.434;2023-05-16T03:09:57;97262.47;;;14.24;100.00
33280;BME280;20403;43.114;12.434;2023-05-16T03:12:23;97258.00;;;14.24;100.00
33280;BME280;20403;43.114;12.434;2023-05-16T03:14:48;97259.06;;;14.23;100.00
33280;BME280;20403;43.114;12.434;2023-05-16T03:17:13;97252.38;;;14.31;100.00
33280;BME280;20403;43.114;12.434;2023-05-16T03:19:39;97246.72;;;14.24;100.00
33280;BME280;20403;43.114;12.434;2023-05-16T03:22:04;97246.63;;;14.29;100.00
33280;BME280;20403;43.114;12.434;2023-05-16T03:24:30;97237.22;;;14.28;100.00
33280;BME280;20403;43.114;12.434;2023-05-16T03:26:56;97230.69;;;14.25;100.00
33280;BME280;20403;43.114;12.434;2023-05-16T03:29:21;97237.22;;;14.28;100.00
33280;BME280;20403;43.114;12.434;2023-05-16T03:31:47;97227.50;;;14.28;100.00
33280;BME280;20403;43.114;12.434;2023-05-16T03:34:12;97227.19;;;14.30;100.00
33280;BME280;20403;43.114;12.434;2023-05-16T03:36:38;97238.97;;;14.33;100.00
33280;BME280;20403;43.114;12.434;2023-05-16T03:39:04;97234.00;;;14.31;100.00
33280;BME280;20403;43.114;12.434;2023-05-16T03:41:29;97240.03;;;14.32;100.00
33280;BME280;20403;43.114;12.434;2023-05-16T03:43:54;97229.63;;;14.26;100.00
33280;BME280;20403;43.114;12.434;2023-05-16T03:46:20;97231.09;;;14.19;100.00
33280;BME280;20403;43.114;12.434;2023-05-16T03:48:45;97223.91;;;14.24;100.00
33280;BME280;20403;43.114;12.434;2023-05-16T03:51:11;97229.81;;;14.30;100.00
33280;BME280;20403;43.114;12.434;2023-05-16T03:53:36;97226.31;;;14.35;100.00
33280;BME280;20403;43.114;12.434;2023-05-16T03:56:02;97226.91;;;14.32;100.00
33280;BME280;20403;43.114;12.434;2023-05-16T03:58:28;97238.66;;;14.34;100.00
33280;BME280;20403;43.114;12.434;2023-05-16T04:00:53;97229.34;;;14.42;100.00
33280;BME280;20403;43.114;12.434;2023-05-16T04:03:19;97221.66;;;14.45;100.00
33280;BME280;20403;43.114;12.434;2023-05-16T04:05:45;97225.75;;;14.38;100.00
33280;BME280;20403;43.114;12.434;2023-05-16T04:08:10;97218.66;;;14.38;100.00
33280;BME280;20403;43.114;12.434;2023-05-16T04:10:36;97213.22;;;14.35;100.00
33280;BME280;20403;43.114;12.434;2023-05-16T04:13:01;97208.38;;;14.42;100.00
33280;BME280;20403;43.114;12.434;2023-05-16T04:15:26;97206.53;;;14.42;100.00
33280;BME280;20403;43.114;12.434;2023-05-16T04:17:52;97197.56;;;14.43;100.00
33280;BME280;20403;43.114;12.434;2023-05-16T04:20:17;97193.59;;;14.46;100.00
33280;BME280;20403;43.114;12.434;2023-05-16T04:22:45;97193.19;;;14.53;100.00
33280;BME280;20403;43.114;12.434;2023-05-16T04:25:11;97185.25;;;14.58;100.00
33280;BME280;20403;43.114;12.434;2023-05-16T04:27:38;97180.31;;;14.56;100.00
33280;BME280;20403;43.114;12.434;2023-05-16T04:30:04;97181.66;;;14.54;100.00
33280;BME280;20403;43.114;12.434;2023-05-16T04:32:29;97165.22;;;14.48;100.00
33280;BME280;20403;43.114;12.434;2023-05-16T04:34:55;97160.19;;;14.52;100.00
33280;BME280;20403;43.114;12.434;2023-05-16T04:37:21;97173.28;;;14.52;100.00
33280;BME280;20403;43.114;12.434;2023-05-16T04:39:46;97179.59;;;14.50;100.00
33280;BME280;20403;43.114;12.434;2023-05-16T04:42:11;97165.63;;;14.55;100.00
33280;BME280;20403;43.114;12.434;2023-05-16T04:44:37;97178.75;;;14.55;100.00
33280;BME280;20403;43.114;12.434;2023-05-16T04:47:02;97173.59;;;14.50;100.00
33280;BME280;20403;43.114;12.434;2023-05-16T04:49:28;97169.31;;;14.40;100.00
33280;BME280;20403;43.114;12.434;2023-05-16T04:51:53;97162.91;;;14.46;100.00
33280;BME280;20403;43.114;12.434;2023-05-16T04:54:19;97153.59;;;14.40;100.00
33280;BME280;20403;43.114;12.434;2023-05-16T04:56:44;97159.31;;;14.42;100.00
33280;BME280;20403;43.114;12.434;2023-05-16T04:59:09;97154.66;;;14.39;100.00
33280;BME280;20403;43.114;12.434;2023-05-16T05:01:35;97155.72;;;14.38;100.00
33280;BME280;20403;43.114;12.434;2023-05-16T05:04:01;97164.97;;;14.36;100.00
33280;BME280;20403;43.114;12.434;2023-05-16T05:06:26;97156.59;;;14.47;100.00
33280;BME280;20403;43.114;12.434;2023-05-16T05:08:53;97153.69;;;14.49;100.00
33280;BME280;20403;43.114;12.434;2023-05-16T05:11:18;97142.50;;;14.57;100.00
33280;BME280;20403;43.114;12.434;2023-05-16T05:13:44;97150.84;;;14.59;100.00
33280;BME280;20403;43.114;12.434;2023-05-16T05:16:09;97148.44;;;14.63;100.00
33280;BME280;20403;43.114;12.434;2023-05-16T05:18:35;97134.34;;;14.59;100.00
33280;BME280;20403;43.114;12.434;2023-05-16T05:21:00;97140.66;;;14.58;100.00
33280;BME280;20403;43.114;12.434;2023-05-16T05:23:26;97136.56;;;14.65;100.00
33280;BME280;20403;43.114;12.434;2023-05-16T05:25:51;97124.72;;;14.68;100.00
33280;BME280;20403;43.114;12.434;2023-05-16T05:28:16;97132.88;;;14.66;100.00
33280;BME280;20403;43.114;12.434;2023-05-16T05:30:42;97136.81;;;14.78;100.00
33280;BME280;20403;43.114;12.434;2023-05-16T05:33:09;97132.22;;;14.83;100.00
33280;BME280;20403;43.114;12.434;2023-05-16T05:35:35;97132.00;;;14.94;100.00
33280;BME280;20403;43.114;12.434;2023-05-16T05:38:00;97134.84;;;15.06;100.00
33280;BME280;20403;43.114;12.434;2023-05-16T05:40:26;97130.09;;;15.08;100.00
33280;BME280;20403;43.114;12.434;2023-05-16T05:42:51;97131.09;;;15.21;100.00
33280;BME280;20403;43.114;12.434;2023-05-16T05:45:16;97129.47;;;15.33;100.00
33280;BME280;20403;43.114;12.434;2023-05-16T05:47:42;97125.47;;;15.36;100.00
33280;BME280;20403;43.114;12.434;2023-05-16T05:50:08;97123.34;;;15.47;100.00
33280;BME280;20403;43.114;12.434;2023-05-16T05:52:36;97124.78;;;15.53;100.00
33280;BME280;20403;43.114;12.434;2023-05-16T05:55:02;97113.22;;;15.63;100.00
33280;BME280;20403;43.114;12.434;2023-05-16T05:57:27;97111.09;;;15.65;100.00
33280;BME280;20403;43.114;12.434;2023-05-16T05:59:53;97106.34;;;15.75;100.00
33280;BME280;20403;43.114;12.434;2023-05-16T06:02:18;97109.16;;;15.79;100.00
33280;BME280;20403;43.114;12.434;2023-05-16T06:04:44;97105.47;;;15.89;100.00
33280;BME280;20403;43.114;12.434;2023-05-16T06:07:10;97101.78;;;15.99;100.00
33280;BME280;20403;43.114;12.434;2023-05-16T06:09:35;97103.22;;;16.13;100.00
33280;BME280;20403;43.114;12.434;2023-05-16T06:12:01;97099.69;;;16.27;100.00
33280;BME280;20403;43.114;12.434;2023-05-16T06:14:28;97102.31;;;16.44;100.00
33280;BME280;20403;43.114;12.434;2023-05-16T06:16:53;97093.34;;;16.63;100.00
33280;BME280;20403;43.114;12.434;2023-05-16T06:19:19;97096.91;;;16.75;100.00
33280;BME280;20403;43.114;12.434;2023-05-16T06:21:44;97096.09;;;16.75;100.00
33280;BME280;20403;43.114;12.434;2023-05-16T06:24:10;97088.53;;;16.91;100.00
33280;BME280;20403;43.114;12.434;2023-05-16T06:26:39;97080.16;;;16.97;100.00
33280;BME280;20403;43.114;12.434;2023-05-16T06:29:04;97099.84;;;16.91;100.00
33280;BME280;20403;43.114;12.434;2023-05-16T06:31:30;97098.31;;;16.82;100.00
33280;BME280;20403;43.114;12.434;2023-05-16T06:33:56;97109.13;;;16.71;100.00
33280;BME280;20403;43.114;12.434;2023-05-16T06:36:22;97109.44;;;16.52;100.00
33280;BME280;20403;43.114;12.434;2023-05-16T06:38:48;97117.78;;;16.46;100.00
33280;BME280;20403;43.114;12.434;2023-05-16T06:41:13;97122.41;;;16.40;100.00
33280;BME280;20403;43.114;12.434;2023-05-16T06:43:39;97118.69;;;16.32;100.00
33280;BME280;20403;43.114;12.434;2023-05-16T06:46:04;97124.13;;;16.36;100.00
33280;BME280;20403;43.114;12.434;2023-05-16T06:48:30;97124.25;;;16.31;100.00
33280;BME280;20403;43.114;12.434;2023-05-16T06:50:55;97122.88;;;16.25;100.00
33280;BME280;20403;43.114;12.434;2023-05-16T06:53:21;97114.53;;;16.23;100.00
33280;BME280;20403;43.114;12.434;2023-05-16T06:55:47;97117.16;;;16.23;100.00
33280;BME280;20403;43.114;12.434;2023-05-16T06:58:13;97121.31;;;16.24;100.00
33280;BME280;20403;43.114;12.434;2023-05-16T07:00:38;97126.09;;;16.13;100.00
33280;BME280;20403;43.114;12.434;2023-05-16T07:03:04;97127.94;;;16.12;100.00
33280;BME280;20403;43.114;12.434;2023-05-16T07:05:29;97125.00;;;16.14;100.00
33280;BME280;20403;43.114;12.434;2023-05-16T07:07:56;97129.31;;;16.10;100.00
33280;BME280;20403;43.114;12.434;2023-05-16T07:10:22;97125.91;;;16.01;100.00
33280;BME280;20403;43.114;12.434;2023-05-16T07:12:48;97131.59;;;15.85;100.00
33280;BME280;20403;43.114;12.434;2023-05-16T07:15:13;97118.91;;;15.87;100.00
33280;BME280;20403;43.114;12.434;2023-05-16T07:17:39;97120.28;;;15.76;100.00
33280;BME280;20403;43.114;12.434;2023-05-16T07:20:05;97116.28;;;15.87;100.00
33280;BME280;20403;43.114;12.434;2023-05-16T07:22:31;97115.34;;;15.83;100.00
33280;BME280;20403;43.114;12.434;2023-05-16T07:24:56;97111.81;;;15.88;100.00
33280;BME280;20403;43.114;12.434;2023-05-16T07:27:25;97117.97;;;15.92;100.00
33280;BME280;20403;43.114;12.434;2023-05-16T07:29:50;97119.06;;;15.91;100.00
33280;BME280;20403;43.114;12.434;2023-05-16T07:32:16;97127.88;;;15.86;100.00
33280;BME280;20403;43.114;12.434;2023-05-16T07:34:42;97128.78;;;15.82;100.00
33280;BME280;20403;43.114;12.434;2023-05-16T07:37:07;97134.03;;;15.82;100.00
33280;BME280;20403;43.114;12.434;2023-05-16T07:39:38;97143.16;;;15.84;100.00
33280;BME280;20403;43.114;12.434;2023-05-16T07:42:05;97145.31;;;15.73;100.00
33280;BME280;20403;43.114;12.434;2023-05-16T07:44:30;97145.91;;;15.70;100.00
33280;BME280;20403;43.114;12.434;2023-05-16T07:46:56;97153.97;;;15.74;100.00
33280;BME280;20403;43.114;12.434;2023-05-16T07:49:21;97144.03;;;15.71;100.00
33280;BME280;20403;43.114;12.434;2023-05-16T07:51:46;97146.19;;;15.69;100.00
33280;BME280;20403;43.114;12.434;2023-05-16T07:54:12;97154.25;;;15.72;100.00
33280;BME280;20403;43.114;12.434;2023-05-16T07:56:37;97157.97;;;15.71;100.00
33280;BME280;20403;43.114;12.434;2023-05-16T07:59:03;97166.00;;;15.75;100.00
33280;BME280;20403;43.114;12.434;2023-05-16T08:01:30;97164.47;;;15.74;100.00
33280;BME280;20403;43.114;12.434;2023-05-16T08:03:55;97160.47;;;15.77;100.00
33280;BME280;20403;43.114;12.434;2023-05-16T08:06:21;97165.94;;;15.66;100.00
33280;BME280;20403;43.114;12.434;2023-05-16T08:08:46;97163.22;;;15.71;100.00
33280;BME280;20403;43.114;12.434;2023-05-16T08:11:11;97168.88;;;15.65;100.00
33280;BME280;20403;43.114;12.434;2023-05-16T08:13:37;97179.63;;;15.54;100.00
33280;BME280;20403;43.114;12.434;2023-05-16T08:16:02;97179.69;;;15.63;100.00
33280;BME280;20403;43.114;12.434;2023-05-16T08:18:28;97173.03;;;15.66;100.00
33280;BME280;20403;43.114;12.434;2023-05-16T08:20:53;97183.25;;;15.67;100.00
33280;BME280;20403;43.114;12.434;2023-05-16T08:23:18;97184.16;;;15.63;100.00
33280;BME280;20403;43.114;12.434;2023-05-16T08:25:44;97192.97;;;15.58;100.00
33280;BME280;20403;43.114;12.434;2023-05-16T08:28:09;97194.00;;;15.48;100.00
33280;BME280;20403;43.114;12.434;2023-05-16T08:30:35;97192.41;;;15.47;100.00
33280;BME280;20403;43.114;12.434;2023-05-16T08:33:00;97202.78;;;15.52;100.00
33280;BME280;20403;43.114;12.434;2023-05-16T08:35:29;97202.75;;;15.44;100.00
33280;BME280;20403;43.114;12.434;2023-05-16T08:37:55;97205.41;;;15.44;100.00
33280;BME280;20403;43.114;12.434;2023-05-16T08:40:21;97208.78;;;15.44;100.00
33280;BME280;20403;43.114;12.434;2023-05-16T08:42:50;97203.13;;;15.51;100.00
33280;BME280;20403;43.114;12.434;2023-05-16T08:45:16;97211.00;;;15.51;100.00
33280;BME280;20403;43.114;12.434;2023-05-16T08:47:42;97211.28;;;15.49;100.00
33280;BME280;20403;43.114;12.434;2023-05-16T08:50:09;97205.69;;;15.42;100.00
33280;BME280;20403;43.114;12.434;2023-05-16T08:52:36;97215.09;;;15.43;100.00
33280;BME280;20403;43.114;12.434;2023-05-16T08:55:03;97223.47;;;15.45;100.00
33280;BME280;20403;43.114;12.434;2023-05-16T08:57:36;97213.75;;;15.46;100.00
33280;BME280;20403;43.114;12.434;2023-05-16T09:00:02;97219.78;;;15.46;100.00
33280;BME280;20403;43.114;12.434;2023-05-16T09:02:31;97229.19;;;15.47;100.00
33280;BME280;20403;43.114;12.434;2023-05-16T09:04:58;97225.03;;;15.46;100.00
33280;BME280;20403;43.114;12.434;2023-05-16T09:07:23;97232.59;;;15.48;100.00
33280;BME280;20403;43.114;12.434;2023-05-16T09:09:49;97235.34;;;15.43;100.00
33280;BME280;20403;43.114;12.434;2023-05-16T09:12:15;97233.69;;;15.47;100.00
33280;BME280;20403;43.114;12.434;2023-05-16T09:14:41;97238.03;;;15.51;100.00
33280;BME280;20403;43.114;12.434;2023-05-16T09:17:07;97239.28;;;15.54;100.00
33280;BME280;20403;43.114;12.434;2023-05-16T09:19:40;97242.31;;;15.47;100.00
33280;BME280;20403;43.114;12.434;2023-05-16T09:22:08;97252.66;;;15.44;100.00
33280;BME280;20403;43.114;12.434;2023-05-16T09:24:40;97258.97;;;15.43;100.00
33280;BME280;20403;43.114;12.434;2023-05-16T09:27:08;97258.09;;;15.47;100.00
33280;BME280;20403;43.114;12.434;2023-05-16T09:29:33;97261.47;;;15.48;100.00
33280;BME280;20403;43.114;12.434;2023-05-16T09:32:12;97264.09;;;15.48;100.00
33280;BME280;20403;43.114;12.434;2023-05-16T09:34:48;97261.06;;;15.54;100.00
33280;BME280;20403;43.114;12.434;2023-05-16T09:37:19;97266.22;;;15.60;100.00
33280;BME280;20403;43.114;12.434;2023-05-16T09:42:18;97262.16;;;15.53;100.00
33280;BME280;20403;43.114;12.434;2023-05-16T09:44:53;97263.16;;;15.66;100.00
33280;BME280;20403;43.114;12.434;2023-05-16T09:47:21;97259.72;;;15.80;100.00
33280;BME280;20403;43.114;12.434;2023-05-16T09:49:51;97264.06;;;15.84;100.00
33280;BME280;20403;43.114;12.434;2023-05-16T09:52:17;97260.06;;;15.87;100.00
33280;BME280;20403;43.114;12.434;2023-05-16T09:54:42;97265.78;;;15.89;100.00
33280;BME280;20403;43.114;12.434;2023-05-16T09:57:10;97269.63;;;15.83;100.00
33280;BME280;20403;43.114;12.434;2023-05-16T09:59:36;97266.88;;;15.88;100.00
33280;BME280;20403;43.114;12.434;2023-05-16T10:02:07;97269.19;;;15.89;100.00
33280;BME280;20403;43.114;12.434;2023-05-16T10:04:35;97268.63;;;16.01;100.00
33280;BME280;20403;43.114;12.434;2023-05-16T10:07:02;97262.66;;;16.09;100.00
33280;BME280;20403;43.114;12.434;2023-05-16T10:09:31;97268.88;;;16.13;100.00
33280;BME280;20403;43.114;12.434;2023-05-16T10:11:59;97272.59;;;16.21;100.00
33280;BME280;20403;43.114;12.434;2023-05-16T10:14:35;97269.34;;;16.15;100.00
33280;BME280;20403;43.114;12.434;2023-05-16T10:17:02;97275.72;;;16.23;100.00
33280;BME280;20403;43.114;12.434;2023-05-16T10:19:28;97279.44;;;16.31;100.00
33280;BME280;20403;43.114;12.434;2023-05-16T10:21:57;97271.06;;;16.20;100.00
33280;BME280;20403;43.114;12.434;2023-05-16T10:27:42;97279.44;;;16.31;100.00
33280;BME280;20403;43.114;12.434;2023-05-16T10:30:09;97275.59;;;16.37;100.00
33280;BME280;20403;43.114;12.434;2023-05-16T10:32:35;97279.53;;;16.48;100.00
33280;BME280;20403;43.114;12.434;2023-05-16T10:35:04;97288.38;;;16.52;100.00
33280;BME280;20403;43.114;12.434;2023-05-16T10:37:31;97286.22;;;16.54;100.00
33280;BME280;20403;43.114;12.434;2023-05-16T10:40:01;97287.59;;;16.60;100.00
33280;BME280;20403;43.114;12.434;2023-05-16T10:42:31;97294.00;;;16.68;100.00
33280;BME280;20403;43.114;12.434;2023-05-16T10:45:13;97295.09;;;16.76;100.00
33280;BME280;20403;43.114;12.434;2023-05-16T10:47:50;97296.38;;;16.87;100.00
33280;BME280;20403;43.114;12.434;2023-05-16T10:50:32;97295.94;;;16.94;100.00
33280;BME280;20403;43.114;12.434;2023-05-16T10:53:36;97290.38;;;17.13;100.00
33280;BME280;20403;43.114;12.434;2023-05-16T11:01:21;97292.69;;;17.06;100.00
33280;BME280;20403;43.114;12.434;2023-05-16T11:11:59;97301.31;;;16.80;100.00
33280;BME280;20403;43.114;12.434;2023-05-16T11:14:36;97299.56;;;16.75;100.00
33280;BME280;20403;43.114;12.434;2023-05-16T11:17:19;97302.03;;;16.72;100.00
33280;BME280;20403;43.114;12.434;2023-05-16T11:19:58;97290.28;;;16.78;100.00
33280;BME280;20403;43.114;12.434;2023-05-16T11:22:31;97297.44;;;16.86;100.00
33280;BME280;20403;43.114;12.434;2023-05-16T11:25:01;97291.44;;;16.94;100.00
33280;BME280;20403;43.114;12.434;2023-05-16T11:32:33;97293.78;;;17.13;100.00
33280;BME280;20403;43.114;12.434;2023-05-16T11:34:59;97291.16;;;17.22;100.00
33280;BME280;20403;43.114;12.434;2023-05-16T11:37:24;97297.22;;;17.31;100.00
33280;BME280;20403;43.114;12.434;2023-05-16T11:39:50;97291.16;;;17.31;100.00
33280;BME280;20403;43.114;12.434;2023-05-16T11:42:16;97291.78;;;17.36;100.00
33280;BME280;20403;43.114;12.434;2023-05-16T11:44:43;97288.22;;;17.41;100.00
33280;BME280;20403;43.114;12.434;2023-05-16T11:47:08;97300.00;;;17.43;100.00
33280;BME280;20403;43.114;12.434;2023-05-16T11:49:34;97290.97;;;17.53;100.00
33280;BME280;20403;43.114;12.434;2023-05-16T11:52:00;97290.22;;;17.44;100.00
33280;BME280;20403;43.114;12.434;2023-05-16T11:54:26;97288.03;;;17.46;100.00
33280;BME280;20403;43.114;12.434;2023-05-16T11:56:52;97295.03;;;17.59;100.00
33280;BME280;20403;43.114;12.434;2023-05-16T11:59:18;97297.66;;;17.59;100.00
33280;BME280;20403;43.114;12.434;2023-05-16T12:01:43;97294.56;;;17.49;100.00
33280;BME280;20403;43.114;12.434;2023-05-16T12:06:35;97303.88;;;17.63;100.00
33280;BME280;20403;43.114;12.434;2023-05-16T12:09:00;97301.22;;;17.63;100.00
33280;BME280;20403;43.114;12.434;2023-05-16T12:11:36;97303.22;;;17.67;100.00
33280;BME280;20403;43.114;12.434;2023-05-16T12:14:03;97298.88;;;17.62;100.00
33280;BME280;20403;43.114;12.434;2023-05-16T12:16:28;97303.41;;;17.61;100.00
33280;BME280;20403;43.114;12.434;2023-05-16T12:18:54;97301.69;;;17.57;100.00
33280;BME280;20403;43.114;12.434;2023-05-16T12:21:20;97308.66;;;17.61;100.00
33280;BME280;20403;43.114;12.434;2023-05-16T12:23:45;97309.28;;;17.67;100.00
33280;BME280;20403;43.114;12.434;2023-05-16T12:26:11;97314.53;;;17.67;100.00
33280;BME280;20403;43.114;12.434;2023-05-16T12:28:36;97313.47;;;17.68;100.00
33280;BME280;20403;43.114;12.434;2023-05-16T12:31:10;97311.13;;;17.75;100.00
33280;BME280;20403;43.114;12.434;2023-05-16T12:33:36;97310.81;;;17.85;100.00
33280;BME280;20403;43.114;12.434;2023-05-16T12:36:02;97309.28;;;17.93;100.00
33280;BME280;20403;43.114;12.434;2023-05-16T12:38:28;97306.00;;;17.96;100.00
33280;BME280;20403;43.114;12.434;2023-05-16T12:40:57;97312.06;;;17.88;100.00
33280;BME280;20403;43.114;12.434;2023-05-16T12:43:23;97313.16;;;17.96;100.00
33280;BME280;20403;43.114;12.434;2023-05-16T12:45:56;97309.88;;;17.99;100.00
33280;BME280;20403;43.114;12.434;2023-05-16T12:48:23;97311.59;;;17.95;100.00
33280;BME280;20403;43.114;12.434;2023-05-16T12:50:49;97314.06;;;18.00;100.00
33280;BME280;20403;43.114;12.434;2023-05-16T12:53:16;97316.09;;;17.94;100.00
33280;BME280;20403;43.114;12.434;2023-05-16T12:55:43;97314.69;;;17.97;100.00
33280;BME280;20403;43.114;12.434;2023-05-16T12:58:10;97317.50;;;17.92;100.00
33280;BME280;20403;43.114;12.434;2023-05-16T13:00:35;97311.09;;;18.01;100.00
33280;BME280;20403;43.114;12.434;2023-05-16T13:03:02;97323.97;;;18.12;100.00
33280;BME280;20403;43.114;12.434;2023-05-16T13:05:28;97320.25;;;18.13;100.00
33280;BME280;20403;43.114;12.434;2023-05-16T13:07:54;97325.06;;;18.11;100.00
33280;BME280;20403;43.114;12.434;2023-05-16T13:10:19;97323.19;;;18.11;100.00
33280;BME280;20403;43.114;12.434;2023-05-16T13:12:45;97323.34;;;18.15;100.00
33280;BME280;20403;43.114;12.434;2023-05-16T13:15:12;97322.38;;;18.28;100.00